sensor_id;sensor_type;location;lat;lon;timestamp;pressure;altitude;pressure_sealevel;temperature;humidity
63405;BME280;49541;57.840;12.306;2022-12-18T00:04:51;101199.75;;;1.89;90.47
63405;BME280;49541;57.840;12.306;2022-12-18T00:09:51;101196.31;;;1.66;91.22
63405;BME280;49541;57.840;12.306;2022-12-18T00:14:51;101196.69;;;1.79;90.90
63405;BME280;49541;57.840;12.306;2022-12-18T00:19:51;101191.78;;;1.70;90.88
63405;BME280;49541;57.840;12.306;2022-12-18T00:24:51;101188.78;;;1.57;91.91
63405;BME280;49541;57.840;12.306;2022-12-18T00:29:51;101199.91;;;1.63;91.08
63405;BME280;49541;57.840;12.306;2022-12-18T00:34:52;101182.44;;;1.62;90.75
63405;BME280;49541;57.840;12.306;2022-12-18T00:39:52;101172.50;;;1.49;91.35
63405;BME280;49541;57.840;12.306;2022-12-18T00:44:52;101175.47;;;1.39;91.77
63405;BME280;49541;57.840;12.306;2022-12-18T00:49:52;101172.66;;;1.44;91.50
63405;BME280;49541;57.840;12.306;2022-12-18T00:54:52;101162.63;;;1.55;91.12
63405;BME280;49541;57.840;12.306;2022-12-18T00:59:52;101157.78;;;1.45;91.31
63405;BME280;49541;57.840;12.306;2022-12-18T01:04:53;101169.50;;;1.36;91.88
63405;BME280;49541;57.840;12.306;2022-12-18T01:09:53;101178.41;;;1.32;92.25
63405;BME280;49541;57.840;12.306;2022-12-18T01:14:53;101179.44;;;1.28;92.42
63405;BME280;49541;57.840;12.306;2022-12-18T01:19:53;101177.19;;;1.18;92.92
63405;BME280;49541;57.840;12.306;2022-12-18T01:24:54;101177.63;;;1.30;92.83
63405;BME280;49541;57.840;12.306;2022-12-18T01:29:54;101188.91;;;1.32;91.97
63405;BME280;49541;57.840;12.306;2022-12-18T01:34:54;101183.53;;;1.35;91.59
63405;BME280;49541;57.840;12.306;2022-12-18T01:39:54;101188.53;;;1.41;91.55
63405;BME280;49541;57.840;12.306;2022-12-18T01:45:05;101172.94;;;1.38;91.70
63405;BME280;49541;57.840;12.306;2022-12-18T01:50:13;101177.00;;;1.45;90.91
63405;BME280;49541;57.840;12.306;2022-12-18T01:55:15;101176.34;;;1.40;90.79
63405;BME280;49541;57.840;12.306;2022-12-18T02:00:18;101174.28;;;1.25;91.44
63405;BME280;49541;57.840;12.306;2022-12-18T02:05:20;101169.03;;;1.25;92.29
63405;BME280;49541;57.840;12.306;2022-12-18T02:10:31;101165.28;;;1.32;91.65
63405;BME280;49541;57.840;12.306;2022-12-18T02:15:44;101156.31;;;1.59;89.99
63405;BME280;49541;57.840;12.306;2022-12-18T02:20:47;101156.81;;;1.47;90.91
63405;BME280;49541;57.840;12.306;2022-12-18T02:26:00;101157.34;;;1.33;91.51
63405;BME280;49541;57.840;12.306;2022-12-18T02:31:04;101163.69;;;1.50;91.64
63405;BME280;49541;57.840;12.306;2022-12-18T02:36:06;101162.66;;;1.54;91.74
63405;BME280;49541;57.840;12.306;2022-12-18T02:41:07;101166.03;;;1.57;90.76
63405;BME280;49541;57.840;12.306;2022-12-18T02:51:47;101155.22;;;1.43;92.33
63405;BME280;49541;57.840;12.306;2022-12-18T02:56:53;101162.06;;;1.47;92.53
63405;BME280;49541;57.840;12.306;2022-12-18T03:01:58;101176.59;;;1.34;94.00
63405;BME280;49541;57.840;12.306;2022-12-18T03:07:02;101181.66;;;1.38;95.24
63405;BME280;49541;57.840;12.306;2022-12-18T03:12:08;101182.31;;;1.43;94.42
63405;BME280;49541;57.840;12.306;2022-12-18T03:17:25;101193.06;;;1.59;94.91
63405;BME280;49541;57.840;12.306;2022-12-18T03:22:27;101188.53;;;1.63;94.55
63405;BME280;49541;57.840;12.306;2022-12-18T03:27:29;101181.00;;;1.55;95.05
63405;BME280;49541;57.840;12.306;2022-12-18T03:32:31;101187.31;;;1.72;94.78
63405;BME280;49541;57.840;12.306;2022-12-18T03:37:33;101190.69;;;1.75;94.53
63405;BME280;49541;57.840;12.306;2022-12-18T03:52:46;101166.00;;;2.22;93.82
63405;BME280;49541;57.840;12.306;2022-12-18T03:57:49;101174.34;;;2.11;93.76
63405;BME280;49541;57.840;12.306;2022-12-18T04:02:52;101181.09;;;2.37;92.56
63405;BME280;49541;57.840;12.306;2022-12-18T04:07:53;101180.38;;;2.13;93.54
63405;BME280;49541;57.840;12.306;2022-12-18T04:12:57;101181.16;;;2.15;94.04
63405;BME280;49541;57.840;12.306;2022-12-18T04:18:01;101186.47;;;2.34;93.61
63405;BME280;49541;57.840;12.306;2022-12-18T04:23:02;101181.94;;;2.38;93.27
63405;BME280;49541;57.840;12.306;2022-12-18T04:28:02;101177.53;;;2.38;93.45
63405;BME280;49541;57.840;12.306;2022-12-18T04:33:02;101189.03;;;2.36;93.73
63405;BME280;49541;57.840;12.306;2022-12-18T04:38:02;101183.06;;;2.32;94.22
63405;BME280;49541;57.840;12.306;2022-12-18T04:43:03;101199.91;;;2.28;94.96
63405;BME280;49541;57.840;12.306;2022-12-18T04:48:03;101184.88;;;2.30;95.03
63405;BME280;49541;57.840;12.306;2022-12-18T04:53:03;101193.84;;;2.26;95.33
63405;BME280;49541;57.840;12.306;2022-12-18T04:58:04;101194.34;;;2.34;94.96
63405;BME280;49541;57.840;12.306;2022-12-18T05:03:04;101200.16;;;2.22;95.33
63405;BME280;49541;57.840;12.306;2022-12-18T05:08:04;101214.25;;;2.19;95.20
63405;BME280;49541;57.840;12.306;2022-12-18T05:13:04;101196.19;;;2.12;96.29
63405;BME280;49541;57.840;12.306;2022-12-18T05:18:05;101193.19;;;2.41;95.23
63405;BME280;49541;57.840;12.306;2022-12-18T05:23:05;101200.59;;;2.32;94.79
63405;BME280;49541;57.840;12.306;2022-12-18T05:28:05;101208.09;;;2.20;95.34
63405;BME280;49541;57.840;12.306;2022-12-18T05:33:05;101210.66;;;2.22;95.52
63405;BME280;49541;57.840;12.306;2022-12-18T05:38:05;101222.09;;;2.21;95.67
63405;BME280;49541;57.840;12.306;2022-12-18T05:43:06;101218.06;;;2.12;96.29
63405;BME280;49541;57.840;12.306;2022-12-18T05:48:06;101218.16;;;2.31;95.81
63405;BME280;49541;57.840;12.306;2022-12-18T05:53:07;101223.00;;;2.40;94.93
63405;BME280;49541;57.840;12.306;2022-12-18T05:58:08;101203.44;;;2.48;95.38
63405;BME280;49541;57.840;12.306;2022-12-18T06:03:09;101211.13;;;2.52;94.93
63405;BME280;49541;57.840;12.306;2022-12-18T06:08:09;101213.66;;;2.54;95.13
63405;BME280;49541;57.840;12.306;2022-12-18T06:13:10;101206.25;;;2.43;95.72
63405;BME280;49541;57.840;12.306;2022-12-18T06:18:10;101212.50;;;2.61;95.02
63405;BME280;49541;57.840;12.306;2022-12-18T06:23:10;101221.44;;;2.57;95.68
63405;BME280;49541;57.840;12.306;2022-12-18T06:28:10;101232.47;;;2.44;96.29
63405;BME280;49541;57.840;12.306;2022-12-18T06:33:11;101225.31;;;2.48;96.00
63405;BME280;49541;57.840;12.306;2022-12-18T06:38:11;101249.03;;;2.46;95.65
63405;BME280;49541;57.840;12.306;2022-12-18T06:43:11;101245.06;;;2.58;95.91
63405;BME280;49541;57.840;12.306;2022-12-18T06:48:11;101240.97;;;2.51;95.54
63405;BME280;49541;57.840;12.306;2022-12-18T06:53:11;101255.47;;;2.60;95.17
63405;BME280;49541;57.840;12.306;2022-12-18T06:58:12;101240.84;;;2.54;95.33
63405;BME280;49541;57.840;12.306;2022-12-18T07:03:12;101235.75;;;2.70;94.73
63405;BME280;49541;57.840;12.306;2022-12-18T07:08:12;101241.03;;;2.70;94.37
63405;BME280;49541;57.840;12.306;2022-12-18T07:13:13;101247.72;;;2.77;93.82
63405;BME280;49541;57.840;12.306;2022-12-18T07:18:13;101254.16;;;2.91;93.28
63405;BME280;49541;57.840;12.306;2022-12-18T07:23:13;101261.00;;;2.74;94.66
63405;BME280;49541;57.840;12.306;2022-12-18T07:28:13;101284.09;;;2.67;94.94
63405;BME280;49541;57.840;12.306;2022-12-18T07:33:14;101285.94;;;2.65;95.07
63405;BME280;49541;57.840;12.306;2022-12-18T07:38:14;101291.03;;;2.69;95.04
63405;BME280;49541;57.840;12.306;2022-12-18T07:43:15;101286.78;;;2.66;95.20
63405;BME280;49541;57.840;12.306;2022-12-18T07:48:15;101295.78;;;2.81;94.52
63405;BME280;49541;57.840;12.306;2022-12-18T07:53:15;101289.31;;;2.88;94.36
63405;BME280;49541;57.840;12.306;2022-12-18T07:58:15;101290.44;;;3.03;93.76
63405;BME280;49541;57.840;12.306;2022-12-18T08:03:15;101302.81;;;3.01;93.55
63405;BME280;49541;57.840;12.306;2022-12-18T08:08:16;101309.22;;;2.95;93.46
63405;BME280;49541;57.840;12.306;2022-12-18T08:13:16;101309.13;;;2.76;94.21
63405;BME280;49541;57.840;12.306;2022-12-18T08:18:16;101307.63;;;2.91;94.14
63405;BME280;49541;57.840;12.306;2022-12-18T08:23:16;101308.38;;;2.95;94.17
63405;BME280;49541;57.840;12.306;2022-12-18T08:28:16;101317.41;;;2.87;94.38
63405;BME280;49541;57.840;12.306;2022-12-18T08:33:17;101346.47;;;3.05;93.70
63405;BME280;49541;57.840;12.306;2022-12-18T08:38:17;101332.81;;;2.97;93.81
63405;BME280;49541;57.840;12.306;2022-12-18T08:43:17;101356.28;;;2.81;95.38
63405;BME280;49541;57.840;12.306;2022-12-18T08:48:36;101361.34;;;2.85;94.62
63405;BME280;49541;57.840;12.306;2022-12-18T08:53:36;101378.06;;;2.84;94.96
63405;BME280;49541;57.840;12.306;2022-12-18T08:58:36;101372.66;;;2.87;94.54
63405;BME280;49541;57.840;12.306;2022-12-18T09:03:36;101375.44;;;2.84;94.59
63405;BME280;49541;57.840;12.306;2022-12-18T09:08:37;101377.63;;;2.95;94.62
63405;BME280;49541;57.840;12.306;2022-12-18T09:13:37;101391.03;;;2.89;94.65
63405;BME280;49541;57.840;12.306;2022-12-18T09:18:37;101402.00;;;2.99;94.73
63405;BME280;49541;57.840;12.306;2022-12-18T09:23:38;101395.03;;;2.98;94.30
63405;BME280;49541;57.840;12.306;2022-12-18T09:28:38;101391.66;;;2.94;94.34
63405;BME280;49541;57.840;12.306;2022-12-18T09:33:38;101376.69;;;2.96;94.58
63405;BME280;49541;57.840;12.306;2022-12-18T09:38:38;101379.06;;;3.02;93.79
63405;BME280;49541;57.840;12.306;2022-12-18T09:43:43;101395.94;;;2.97;93.86
63405;BME280;49541;57.840;12.306;2022-12-18T09:48:49;101387.00;;;3.01;93.97
63405;BME280;49541;57.840;12.306;2022-12-18T09:53:52;101389.72;;;3.20;92.84
63405;BME280;49541;57.840;12.306;2022-12-18T09:59:00;101389.13;;;3.13;92.76
63405;BME280;49541;57.840;12.306;2022-12-18T10:04:00;101396.75;;;3.19;92.47
63405;BME280;49541;57.840;12.306;2022-12-18T10:24:43;101404.91;;;3.13;93.09
63405;BME280;49541;57.840;12.306;2022-12-18T10:29:47;101423.06;;;3.19;92.93
63405;BME280;49541;57.840;12.306;2022-12-18T10:34:48;101422.47;;;3.13;93.20
63405;BME280;49541;57.840;12.306;2022-12-18T10:40:06;101433.59;;;3.19;92.94
63405;BME280;49541;57.840;12.306;2022-12-18T10:50:18;101467.69;;;3.22;92.54
63405;BME280;49541;57.840;12.306;2022-12-18T10:55:19;101472.44;;;3.14;93.68
63405;BME280;49541;57.840;12.306;2022-12-18T11:00:23;101471.63;;;3.33;92.93
63405;BME280;49541;57.840;12.306;2022-12-18T11:05:29;101476.69;;;3.37;92.01
63405;BME280;49541;57.840;12.306;2022-12-18T11:10:33;101475.25;;;3.30;92.63
63405;BME280;49541;57.840;12.306;2022-12-18T11:15:35;101456.25;;;3.23;92.57
63405;BME280;49541;57.840;12.306;2022-12-18T11:20:35;101447.94;;;3.12;93.41
63405;BME280;49541;57.840;12.306;2022-12-18T11:25:35;101446.72;;;3.21;93.15
63405;BME280;49541;57.840;12.306;2022-12-18T11:30:36;101466.72;;;3.25;93.15
63405;BME280;49541;57.840;12.306;2022-12-18T11:40:40;101472.75;;;3.47;91.78
63405;BME280;49541;57.840;12.306;2022-12-18T11:50:52;101483.25;;;3.49;92.34
63405;BME280;49541;57.840;12.306;2022-12-18T12:01:07;101478.28;;;3.41;92.44
63405;BME280;49541;57.840;12.306;2022-12-18T12:11:23;101482.06;;;3.36;93.19
63405;BME280;49541;57.840;12.306;2022-12-18T12:16:34;101495.34;;;3.53;92.43
63405;BME280;49541;57.840;12.306;2022-12-18T12:21:41;101507.94;;;3.46;92.03
63405;BME280;49541;57.840;12.306;2022-12-18T12:36:53;101515.09;;;3.43;92.84
63405;BME280;49541;57.840;12.306;2022-12-18T12:41:59;101518.81;;;3.37;92.97
63405;BME280;49541;57.840;12.306;2022-12-18T12:47:31;101515.84;;;3.46;93.09
63405;BME280;49541;57.840;12.306;2022-12-18T12:52:37;101518.81;;;3.37;93.61
63405;BME280;49541;57.840;12.306;2022-12-18T12:57:40;101520.34;;;3.43;93.52
63405;BME280;49541;57.840;12.306;2022-12-18T13:02:51;101518.91;;;3.56;93.12
63405;BME280;49541;57.840;12.306;2022-12-18T13:07:55;101521.16;;;3.45;92.80
63405;BME280;49541;57.840;12.306;2022-12-18T13:23:26;101555.59;;;3.81;90.55
63405;BME280;49541;57.840;12.306;2022-12-18T13:29:12;101556.31;;;3.64;91.14
63405;BME280;49541;57.840;12.306;2022-12-18T13:33:48;101549.88;;;3.72;91.48
63405;BME280;49541;57.840;12.306;2022-12-18T13:39:08;101544.06;;;3.84;90.49
63405;BME280;49541;57.840;12.306;2022-12-18T13:54:32;101567.63;;;3.87;90.63
63405;BME280;49541;57.840;12.306;2022-12-18T13:59:34;101575.03;;;3.99;89.92
63405;BME280;49541;57.840;12.306;2022-12-18T14:04:35;101574.63;;;3.88;90.13
63405;BME280;49541;57.840;12.306;2022-12-18T14:09:36;101559.22;;;3.79;89.66
63405;BME280;49541;57.840;12.306;2022-12-18T14:14:37;101575.16;;;3.76;90.17
63405;BME280;49541;57.840;12.306;2022-12-18T14:19:44;101567.38;;;3.93;89.51
63405;BME280;49541;57.840;12.306;2022-12-18T14:24:45;101584.44;;;3.84;89.65
63405;BME280;49541;57.840;12.306;2022-12-18T14:29:45;101579.25;;;4.03;88.60
63405;BME280;49541;57.840;12.306;2022-12-18T14:34:46;101581.22;;;3.98;88.32
63405;BME280;49541;57.840;12.306;2022-12-18T14:39:57;101571.97;;;4.08;88.23
63405;BME280;49541;57.840;12.306;2022-12-18T14:50:17;101578.44;;;4.41;85.64
63405;BME280;49541;57.840;12.306;2022-12-18T14:55:17;101578.97;;;4.09;87.30
63405;BME280;49541;57.840;12.306;2022-12-18T15:00:19;101571.38;;;4.02;88.56
63405;BME280;49541;57.840;12.306;2022-12-18T15:05:21;101593.13;;;3.86;89.25
63405;BME280;49541;57.840;12.306;2022-12-18T15:10:33;101600.72;;;3.94;89.47
63405;BME280;49541;57.840;12.306;2022-12-18T15:20:56;101606.38;;;3.85;90.19
63405;BME280;49541;57.840;12.306;2022-12-18T15:26:02;101619.56;;;4.05;89.29
63405;BME280;49541;57.840;12.306;2022-12-18T15:31:05;101611.44;;;4.10;88.19
63405;BME280;49541;57.840;12.306;2022-12-18T15:36:09;101624.09;;;3.81;89.12
63405;BME280;49541;57.840;12.306;2022-12-18T15:41:13;101615.19;;;3.63;90.94
63405;BME280;49541;57.840;12.306;2022-12-18T15:46:15;101621.25;;;3.65;91.33
63405;BME280;49541;57.840;12.306;2022-12-18T15:51:19;101636.78;;;3.72;90.92
63405;BME280;49541;57.840;12.306;2022-12-18T15:56:20;101641.94;;;3.53;92.05
63405;BME280;49541;57.840;12.306;2022-12-18T16:01:39;101652.06;;;3.63;91.82
63405;BME280;49541;57.840;12.306;2022-12-18T16:06:40;101653.22;;;3.56;92.51
63405;BME280;49541;57.840;12.306;2022-12-18T16:11:41;101670.69;;;3.37;93.27
63405;BME280;49541;57.840;12.306;2022-12-18T16:16:42;101669.66;;;3.41;94.25
63405;BME280;49541;57.840;12.306;2022-12-18T16:21:43;101664.75;;;3.32;94.56
63405;BME280;49541;57.840;12.306;2022-12-18T16:26:43;101677.41;;;3.44;94.05
63405;BME280;49541;57.840;12.306;2022-12-18T16:31:43;101680.75;;;3.49;93.57
63405;BME280;49541;57.840;12.306;2022-12-18T16:36:43;101687.09;;;3.21;94.68
63405;BME280;49541;57.840;12.306;2022-12-18T16:41:44;101681.88;;;3.20;95.31
63405;BME280;49541;57.840;12.306;2022-12-18T16:46:44;101682.19;;;3.12;95.82
63405;BME280;49541;57.840;12.306;2022-12-18T16:51:47;101691.41;;;3.22;95.10
63405;BME280;49541;57.840;12.306;2022-12-18T16:56:47;101681.50;;;3.29;94.70
63405;BME280;49541;57.840;12.306;2022-12-18T17:01:50;101686.44;;;3.60;93.11
63405;BME280;49541;57.840;12.306;2022-12-18T17:06:50;101686.38;;;3.62;92.18
63405;BME280;49541;57.840;12.306;2022-12-18T17:11:52;101690.44;;;3.48;93.26
63405;BME280;49541;57.840;12.306;2022-12-18T17:16:53;101682.50;;;3.71;92.41
63405;BME280;49541;57.840;12.306;2022-12-18T17:21:54;101692.63;;;3.81;91.24
63405;BME280;49541;57.840;12.306;2022-12-18T17:26:54;101693.66;;;3.55;92.40
63405;BME280;49541;57.840;12.306;2022-12-18T17:31:54;101676.56;;;3.43;92.84
63405;BME280;49541;57.840;12.306;2022-12-18T17:36:54;101687.16;;;3.42;93.00
63405;BME280;49541;57.840;12.306;2022-12-18T17:41:55;101689.38;;;3.75;92.51
63405;BME280;49541;57.840;12.306;2022-12-18T17:46:55;101692.59;;;4.24;90.02
63405;BME280;49541;57.840;12.306;2022-12-18T17:51:56;101697.22;;;4.39;88.11
63405;BME280;49541;57.840;12.306;2022-12-18T17:56:56;101698.47;;;4.30;88.04
63405;BME280;49541;57.840;12.306;2022-12-18T18:01:56;101700.06;;;4.35;88.08
63405;BME280;49541;57.840;12.306;2022-12-18T18:06:56;101706.34;;;4.71;85.98
63405;BME280;49541;57.840;12.306;2022-12-18T18:11:56;101715.66;;;4.60;85.89
63405;BME280;49541;57.840;12.306;2022-12-18T18:17:15;101715.78;;;4.57;86.15
63405;BME280;49541;57.840;12.306;2022-12-18T18:22:15;101708.09;;;4.91;84.95
63405;BME280;49541;57.840;12.306;2022-12-18T18:27:16;101704.63;;;5.10;83.38
63405;BME280;49541;57.840;12.306;2022-12-18T18:32:16;101704.56;;;4.72;85.64
63405;BME280;49541;57.840;12.306;2022-12-18T18:37:16;101704.13;;;4.81;84.14
63405;BME280;49541;57.840;12.306;2022-12-18T18:42:17;101720.66;;;4.66;85.05
63405;BME280;49541;57.840;12.306;2022-12-18T18:47:17;101712.16;;;4.99;83.89
63405;BME280;49541;57.840;12.306;2022-12-18T18:52:17;101715.38;;;4.66;85.04
63405;BME280;49541;57.840;12.306;2022-12-18T18:57:17;101716.19;;;4.27;87.37
63405;BME280;49541;57.840;12.306;2022-12-18T19:02:17;101718.03;;;4.04;87.73
63405;BME280;49541;57.840;12.306;2022-12-18T19:07:17;101704.66;;;3.87;88.48
63405;BME280;49541;57.840;12.306;2022-12-18T19:12:18;101712.22;;;3.96;89.46
63405;BME280;49541;57.840;12.306;2022-12-18T19:17:47;101708.94;;;4.12;87.96
63405;BME280;49541;57.840;12.306;2022-12-18T19:22:48;101707.09;;;4.14;87.47
63405;BME280;49541;57.840;12.306;2022-12-18T19:27:48;101713.50;;;3.86;88.32
63405;BME280;49541;57.840;12.306;2022-12-18T19:32:48;101709.34;;;3.58;89.77
63405;BME280;49541;57.840;12.306;2022-12-18T19:37:48;101718.84;;;3.62;89.74
63405;BME280;49541;57.840;12.306;2022-12-18T19:42:48;101719.69;;;3.63;88.84
63405;BME280;49541;57.840;12.306;2022-12-18T19:47:49;101722.56;;;3.57;89.21
63405;BME280;49541;57.840;12.306;2022-12-18T19:52:49;101716.44;;;3.56;89.17
63405;BME280;49541;57.840;12.306;2022-12-18T19:57:49;101725.38;;;3.52;88.71
63405;BME280;49541;57.840;12.306;2022-12-18T20:02:49;101718.69;;;3.65;88.00
63405;BME280;49541;57.840;12.306;2022-12-18T20:07:50;101706.16;;;3.50;85.96
63405;BME280;49541;57.840;12.306;2022-12-18T20:12:51;101713.75;;;3.36;85.71
63405;BME280;49541;57.840;12.306;2022-12-18T20:17:51;101717.50;;;3.28;85.33
63405;BME280;49541;57.840;12.306;2022-12-18T20:22:52;101728.16;;;3.25;84.69
63405;BME280;49541;57.840;12.306;2022-12-18T20:27:52;101735.19;;;3.48;83.05
63405;BME280;49541;57.840;12.306;2022-12-18T20:32:52;101749.22;;;3.25;83.08
63405;BME280;49541;57.840;12.306;2022-12-18T20:37:53;101759.00;;;3.45;81.04
63405;BME280;49541;57.840;12.306;2022-12-18T20:42:54;101753.78;;;3.44;80.27
63405;BME280;49541;57.840;12.306;2022-12-18T20:47:54;101741.44;;;3.22;79.57
63405;BME280;49541;57.840;12.306;2022-12-18T20:52:55;101727.63;;;3.39;79.17
63405;BME280;49541;57.840;12.306;2022-12-18T20:57:55;101729.41;;;3.39;77.62
63405;BME280;49541;57.840;12.306;2022-12-18T21:02:55;101732.50;;;3.03;78.50
63405;BME280;49541;57.840;12.306;2022-12-18T21:07:55;101721.53;;;2.92;79.44
63405;BME280;49541;57.840;12.306;2022-12-18T21:12:56;101714.03;;;2.81;79.09
63405;BME280;49541;57.840;12.306;2022-12-18T21:17:56;101716.44;;;2.87;79.11
63405;BME280;49541;57.840;12.306;2022-12-18T21:22:56;101731.34;;;2.63;79.97
63405;BME280;49541;57.840;12.306;2022-12-18T21:27:56;101738.03;;;2.72;79.24
63405;BME280;49541;57.840;12.306;2022-12-18T21:32:57;101742.91;;;2.57;79.38
63405;BME280;49541;57.840;12.306;2022-12-18T21:37:57;101752.00;;;2.49;80.05
63405;BME280;49541;57.840;12.306;2022-12-18T21:42:57;101743.22;;;2.50;80.72
63405;BME280;49541;57.840;12.306;2022-12-18T21:48:16;101731.38;;;2.61;79.76
63405;BME280;49541;57.840;12.306;2022-12-18T21:53:16;101716.47;;;2.62;79.34
63405;BME280;49541;57.840;12.306;2022-12-18T21:58:16;101723.28;;;2.42;79.78
63405;BME280;49541;57.840;12.306;2022-12-18T22:03:17;101727.09;;;2.59;78.73
63405;BME280;49541;57.840;12.306;2022-12-18T22:08:17;101730.28;;;2.43;79.24
63405;BME280;49541;57.840;12.306;2022-12-18T22:13:17;101723.13;;;2.22;79.98
63405;BME280;49541;57.840;12.306;2022-12-18T22:18:17;101735.97;;;2.30;79.49
63405;BME280;49541;57.840;12.306;2022-12-18T22:23:20;101742.69;;;2.38;79.04
63405;BME280;49541;57.840;12.306;2022-12-18T22:28:20;101745.66;;;2.54;77.72
63405;BME280;49541;57.840;12.306;2022-12-18T22:33:39;101750.81;;;2.05;78.48
63405;BME280;49541;57.840;12.306;2022-12-18T22:38:39;101721.69;;;2.12;77.76
63405;BME280;49541;57.840;12.306;2022-12-18T22:43:39;101708.72;;;2.07;78.65
63405;BME280;49541;57.840;12.306;2022-12-18T22:48:39;101713.22;;;1.77;78.64
63405;BME280;49541;57.840;12.306;2022-12-18T22:53:40;101719.66;;;1.67;80.27
63405;BME280;49541;57.840;12.306;2022-12-18T22:58:40;101709.97;;;1.95;79.32
63405;BME280;49541;57.840;12.306;2022-12-18T23:03:40;101718.81;;;1.93;79.52
63405;BME280;49541;57.840;12.306;2022-12-18T23:08:40;101702.81;;;2.00;76.94
63405;BME280;49541;57.840;12.306;2022-12-18T23:13:41;101690.44;;;1.77;77.90
63405;BME280;49541;57.840;12.306;2022-12-18T23:18:41;101681.00;;;1.98;78.23
63405;BME280;49541;57.840;12.306;2022-12-18T23:23:42;101672.41;;;1.67;79.17
63405;BME280;49541;57.840;12.306;2022-12-18T23:28:42;101667.34;;;1.60;78.63
63405;BME280;49541;57.840;12.306;2022-12-18T23:33:43;101643.03;;;1.80;77.88
63405;BME280;49541;57.840;12.306;2022-12-18T23:38:51;101636.75;;;2.11;74.99
63405;BME280;49541;57.840;12.306;2022-12-18T23:43:52;101636.34;;;1.98;74.63
63405;BME280;49541;57.840;12.306;2022-12-18T23:48:52;101615.75;;;2.11;73.16
63405;BME280;49541;57.840;12.306;2022-12-18T23:53:52;101607.56;;;1.69;72.36
63405;BME280;49541;57.840;12.306;2022-12-18T23:58:53;101618.63;;;1.52;74.14
